createdAt,value
2019-03-12T00:01:15.592Z,50.30
2019-03-12T00:06:18.054Z,50.28
2019-03-12T00:11:20.529Z,50.25
2019-03-12T00:16:22.994Z,50.17
2019-03-12T00:21:25.452Z,50.43
2019-03-12T00:26:27.908Z,50.79
2019-03-12T00:31:30.369Z,50.83
2019-03-12T00:36:32.837Z,50.97
2019-03-12T00:41:35.300Z,51.17
2019-03-12T00:46:37.756Z,51.50
2019-03-12T00:51:40.269Z,51.63
2019-03-12T00:56:42.757Z,51.92
2019-03-12T01:01:45.215Z,52.43
2019-03-12T01:06:47.676Z,52.44
2019-03-12T01:11:50.137Z,52.53
2019-03-12T01:16:52.599Z,52.78
2019-03-12T01:21:55.070Z,53.04
2019-03-12T01:26:57.602Z,53.23
2019-03-12T01:32:00.066Z,53.34
2019-03-12T01:37:02.538Z,53.41
2019-03-12T01:42:05.016Z,53.29
2019-03-12T01:47:07.477Z,53.45
2019-03-12T01:52:09.939Z,53.72
2019-03-12T01:57:12.395Z,53.76
2019-03-12T02:02:14.867Z,54.00
2019-03-12T02:07:17.343Z,54.27
2019-03-12T02:12:19.810Z,54.56
2019-03-12T02:17:22.318Z,54.75
2019-03-12T02:22:24.806Z,55.03
2019-03-12T02:27:27.262Z,55.31
2019-03-12T02:32:29.734Z,55.73
2019-03-12T02:37:32.205Z,55.81
2019-03-12T02:42:34.689Z,56.04
2019-03-12T02:47:37.146Z,56.42
2019-03-12T02:52:39.617Z,56.57
2019-03-12T02:57:42.093Z,56.75
2019-03-12T03:02:44.558Z,56.81
2019-03-12T03:07:56.105Z,56.88
2019-03-12T03:12:58.575Z,56.95
2019-03-12T03:18:01.045Z,57.14
2019-03-12T03:23:03.527Z,57.44
2019-03-12T03:28:05.990Z,57.95
2019-03-12T03:33:08.473Z,57.87
2019-03-12T03:38:10.995Z,58.17
2019-03-12T03:43:13.466Z,58.30
2019-03-12T03:48:15.980Z,58.50
2019-03-12T03:53:18.444Z,58.75
2019-03-12T03:58:20.911Z,58.76
2019-03-12T04:03:23.377Z,59.13
2019-03-12T04:08:25.863Z,59.40
2019-03-12T04:13:28.328Z,59.57
2019-03-12T04:18:30.797Z,59.59
2019-03-12T04:23:33.282Z,59.64
2019-03-12T04:28:35.749Z,59.96
2019-03-12T04:33:59.703Z,60.20
2019-03-12T04:39:02.167Z,60.34
2019-03-12T04:44:04.645Z,60.47
2019-03-12T04:49:07.108Z,60.72
2019-03-12T04:54:09.576Z,60.53
2019-03-12T04:59:12.062Z,60.90
2019-03-12T05:04:14.537Z,61.05
2019-03-12T05:09:17.006Z,61.44
2019-03-12T05:14:25.282Z,61.91
2019-03-12T05:19:27.682Z,62.05
2019-03-12T05:24:30.168Z,61.69
2019-03-12T05:29:32.620Z,61.73
2019-03-12T05:34:35.110Z,61.75
2019-03-12T05:39:37.577Z,61.53
2019-03-12T05:44:40.067Z,61.24
2019-03-12T05:49:42.542Z,60.97
2019-03-12T05:54:45.030Z,60.71
2019-03-12T05:59:47.501Z,60.28
2019-03-12T06:04:49.977Z,59.93
2019-03-12T06:09:52.444Z,59.51
2019-03-12T06:14:54.916Z,59.17
2019-03-12T06:19:57.394Z,59.10
2019-03-12T06:25:00.077Z,58.66
2019-03-12T06:30:02.351Z,58.47
2019-03-12T06:35:04.806Z,57.91
2019-03-12T06:40:22.210Z,57.15
2019-03-12T06:45:24.692Z,57.23
2019-03-12T06:50:27.138Z,57.15
2019-03-12T06:55:35.666Z,57.09
2019-03-12T07:00:41.005Z,57.42
2019-03-12T07:05:46.460Z,57.75
2019-03-12T07:10:51.944Z,58.06
2019-03-12T07:15:57.150Z,57.73
2019-03-12T07:21:02.803Z,56.55
2019-03-12T07:26:14.503Z,55.63
2019-03-12T07:31:17.036Z,53.52
2019-03-12T07:36:34.565Z,51.94
2019-03-12T07:41:37.041Z,50.42
2019-03-12T07:46:45.435Z,46.62
2019-03-12T07:51:53.851Z,44.29
2019-03-12T07:57:14.746Z,39.71
2019-03-12T08:02:17.216Z,29.36
2019-03-12T08:07:22.805Z,24.08
2019-03-12T08:12:25.286Z,31.01
2019-03-12T08:17:30.786Z,25.42
2019-03-12T08:22:33.248Z,20.49
2019-03-12T08:27:44.874Z,18.02
2019-03-12T08:32:56.534Z,15.80
2019-03-12T08:38:05.175Z,15.62
2019-03-12T08:43:07.649Z,15.04
2019-03-12T08:48:12.609Z,14.44
2019-03-12T08:53:21.601Z,13.89
2019-03-12T08:58:26.969Z,12.49
2019-03-12T09:03:29.448Z,11.66
2019-03-12T09:08:38.239Z,11.61
2019-03-12T09:13:40.705Z,15.69
2019-03-12T09:18:43.247Z,21.26
2019-03-12T09:24:03.730Z,24.55
2019-03-12T09:29:06.206Z,23.94
2019-03-12T09:34:08.688Z,24.18
2019-03-12T09:39:26.430Z,25.89
2019-03-12T09:44:28.895Z,26.33
2019-03-12T09:49:37.302Z,25.62
2019-03-12T09:54:42.702Z,25.48
2019-03-12T10:00:15.536Z,25.13
2019-03-12T10:05:17.403Z,25.47
2019-03-12T10:10:19.877Z,25.50
2019-03-12T10:15:25.234Z,26.01
2019-03-12T10:20:45.886Z,26.35
2019-03-12T10:25:54.531Z,28.12
2019-03-12T10:31:09.083Z,27.28
2019-03-12T10:36:17.478Z,26.33
2019-03-12T10:41:19.815Z,24.43
2019-03-12T10:46:28.225Z,20.58
2019-03-12T10:51:30.681Z,19.79
2019-03-12T10:56:33.177Z,21.94
2019-03-12T11:01:35.638Z,23.85
2019-03-12T11:06:38.104Z,24.11
2019-03-12T11:11:40.574Z,23.74
2019-03-12T11:16:43.041Z,24.57
2019-03-12T11:21:45.579Z,25.86
2019-03-12T11:26:48.042Z,26.43
2019-03-12T11:31:50.616Z,26.96
2019-03-12T11:36:53.054Z,26.96
2019-03-12T11:41:55.485Z,26.98
2019-03-12T11:46:58.068Z,27.33
2019-03-12T11:52:00.500Z,27.16
2019-03-12T11:57:03.005Z,27.01
2019-03-12T12:02:05.449Z,26.97
2019-03-12T12:07:07.996Z,26.96
2019-03-12T12:12:10.376Z,27.43
2019-03-12T12:17:12.870Z,27.60
2019-03-12T12:22:15.372Z,28.13
2019-03-12T12:27:17.881Z,28.39
2019-03-12T12:32:20.315Z,28.85
2019-03-12T12:37:22.790Z,29.42
2019-03-12T12:42:25.248Z,29.27
2019-03-12T12:47:27.704Z,29.08
2019-03-12T12:52:30.169Z,28.68
2019-03-12T12:57:32.632Z,28.46
2019-03-12T13:02:35.094Z,27.49
2019-03-12T13:07:37.571Z,27.53
2019-03-12T13:12:41.298Z,26.23
2019-03-12T13:17:42.496Z,25.44
2019-03-12T13:22:44.969Z,24.89
2019-03-12T13:27:47.437Z,25.47
2019-03-12T13:32:51.226Z,26.01
2019-03-12T13:37:52.457Z,26.07
2019-03-12T13:42:54.927Z,25.82
2019-03-12T13:47:57.384Z,27.55
2019-03-12T13:52:59.866Z,26.79
2019-03-12T13:58:02.336Z,27.12
2019-03-12T14:03:04.804Z,27.38
2019-03-12T14:08:07.275Z,27.08
2019-03-12T14:13:09.751Z,27.58
2019-03-12T14:18:12.217Z,26.68
2019-03-12T14:23:14.686Z,27.55
2019-03-12T14:28:17.155Z,26.68
2019-03-12T14:33:19.624Z,27.67
2019-03-12T14:38:22.118Z,28.02
2019-03-12T14:43:24.604Z,28.77
2019-03-12T14:48:45.482Z,29.02
2019-03-12T14:53:56.991Z,29.22
2019-03-12T14:58:59.459Z,29.38
2019-03-12T15:04:01.946Z,29.67
2019-03-12T15:09:04.423Z,29.28
2019-03-12T15:14:06.907Z,31.45
2019-03-12T15:19:09.439Z,31.48
2019-03-12T15:24:11.899Z,31.08
2019-03-12T15:29:14.370Z,31.04
2019-03-12T15:34:16.822Z,30.99
2019-03-12T15:39:19.285Z,30.77
2019-03-12T15:44:21.743Z,29.87
2019-03-12T15:49:24.214Z,29.31
2019-03-12T15:54:26.675Z,29.37
2019-03-12T15:59:29.144Z,29.08
2019-03-12T16:04:31.609Z,29.58
2019-03-12T16:09:34.096Z,28.79
2019-03-12T16:14:36.562Z,28.26
2019-03-12T16:19:39.056Z,28.09
2019-03-12T16:24:41.545Z,28.03
2019-03-12T16:29:44.012Z,28.21
2019-03-12T16:34:46.478Z,27.69
2019-03-12T16:39:48.976Z,27.49
2019-03-12T16:44:51.550Z,27.68
2019-03-12T16:49:54.009Z,29.17
2019-03-12T16:54:56.619Z,29.24
2019-03-12T16:59:59.017Z,29.43
2019-03-12T17:05:03.823Z,29.67
2019-03-12T17:10:03.940Z,30.14
2019-03-12T17:15:09.079Z,30.77
2019-03-12T17:20:11.563Z,30.99
2019-03-12T17:25:14.035Z,31.35
2019-03-12T17:30:19.428Z,31.85
2019-03-12T17:35:37.330Z,32.45
2019-03-12T17:40:39.798Z,33.44
2019-03-12T17:45:42.258Z,34.57
2019-03-12T17:50:44.748Z,35.09
2019-03-12T17:55:47.202Z,35.57
2019-03-12T18:00:49.664Z,35.99
2019-03-12T18:05:52.124Z,36.20
2019-03-12T18:10:54.595Z,36.31
2019-03-12T18:15:57.034Z,36.65
2019-03-12T18:20:59.547Z,36.68
2019-03-12T18:26:02.024Z,36.94
2019-03-12T18:31:04.473Z,37.11
2019-03-12T18:36:07.054Z,37.35
2019-03-12T18:41:09.563Z,37.59
2019-03-12T18:46:12.031Z,37.60
2019-03-12T18:51:14.557Z,37.92
2019-03-12T18:56:17.007Z,37.81
2019-03-12T19:01:19.466Z,37.99
2019-03-12T19:06:21.947Z,38.00
2019-03-12T19:11:24.397Z,37.94
2019-03-12T19:16:26.865Z,38.14
2019-03-12T19:21:29.347Z,37.99
2019-03-12T19:26:31.836Z,37.78
2019-03-12T19:31:34.309Z,37.74
2019-03-12T19:36:36.778Z,37.80
2019-03-12T19:41:39.255Z,37.72
2019-03-12T19:46:41.746Z,37.82
2019-03-12T19:51:44.234Z,37.64
2019-03-12T19:56:46.717Z,37.55
2019-03-12T20:01:49.195Z,37.58
2019-03-12T20:06:54.469Z,37.49
2019-03-12T20:12:11.952Z,37.31
2019-03-12T20:17:36.276Z,37.49
2019-03-12T20:23:09.210Z,37.56
2019-03-12T20:28:24.239Z,37.51
2019-03-12T20:33:41.683Z,37.58
2019-03-12T20:39:17.854Z,37.25
2019-03-12T20:44:38.663Z,37.36
2019-03-12T20:50:08.521Z,37.24
2019-03-12T20:55:20.058Z,37.04
2019-03-12T21:00:59.743Z,37.04
2019-03-12T21:06:32.871Z,37.13
2019-03-12T21:11:44.282Z,37.62
2019-03-12T21:17:23.683Z,37.41
2019-03-12T21:22:44.650Z,37.71
2019-03-12T21:27:52.992Z,37.67
2019-03-12T21:32:55.481Z,37.62
2019-03-12T21:37:57.958Z,37.55
2019-03-12T21:43:00.441Z,37.85
2019-03-12T21:48:02.902Z,37.95
2019-03-12T21:53:05.373Z,38.47
2019-03-12T21:58:07.860Z,40.25
2019-03-12T22:03:10.363Z,41.46
2019-03-12T22:08:12.828Z,42.49
2019-03-12T22:13:15.289Z,44.19
2019-03-12T22:18:17.772Z,45.15
2019-03-12T22:23:20.239Z,45.83
2019-03-12T22:28:22.738Z,47.15
2019-03-12T22:33:25.214Z,48.03
2019-03-12T22:38:27.686Z,48.08
2019-03-12T22:43:30.134Z,48.13
2019-03-12T22:48:32.623Z,47.87
2019-03-12T22:53:35.060Z,48.47
2019-03-12T22:58:37.539Z,48.35
2019-03-12T23:03:39.995Z,49.25
2019-03-12T23:08:42.450Z,49.38
2019-03-12T23:13:44.931Z,49.44
2019-03-12T23:18:47.440Z,49.39
2019-03-12T23:23:49.887Z,49.79
2019-03-12T23:28:52.386Z,50.56
2019-03-12T23:33:54.855Z,51.39
2019-03-12T23:38:57.339Z,51.58
2019-03-12T23:43:59.791Z,51.89
2019-03-12T23:49:02.264Z,52.23
2019-03-12T23:54:04.745Z,52.70
2019-03-12T23:59:07.210Z,52.88
